Weather at Abilene Regional Airport

Public forecast

Using degrees Fahrenheit for public forecast. Weather courtesy of forecast.io.

Current aviation weather report (METAR) for Abilene Regional Airport

2024/05/25 16:20 (retrieved 27 minutes ago)

KABI 251620Z 16013G18KT 6SM HZ BKN024 31/24 A2981 RMK AO2 T03110239

Aviation forecast (TAF) for Abilene Regional Airport

2024/05/25 16:04 Ammendment (retrieved 43 minutes ago)

TAF AMD KABI 251602Z 2516/2612 16011KT 6SM HZ FEW010 FM251700 18017G26KT P6SM SKC FM252200 18018G26KT P6SM VCTS SCT050CB FM260100 16015G23KT P6SM SCT250